Aeroporto :
LOGIN :

Iscrizione | Disclaimer

   EN    FR    IT 

 










Sommario :    VFR   VFR Marginale   IFR   IFR Intensivo   IFR Molto Intensivo
Visibilità : 
Base nubi : 
>= 8 km
>= 3000ft
5 / 8 km
1000 / 3000 ft
1500m / 5 km
500 / 1000 ft
800 / 1500m
200 / 500 ft
< 800m
< 200 ft
Simboli :   Temporali  Nebbia  Neve Forte  Precipitazioni Forti  Vento > 20 kt
SIGMETs :   Varie  Temporali  Ghiacco  Turbolenza  Onda orograficha  Ceneri Vulcaniche






- Altitudine del aeroporto : 626 ft
- Codice IATA : CRA


LRCV - Craiova

ULTIMO METAR :
  • 240800Z 30007KT 9999 SCT010 14/09 Q1005

METARs OBSOLETI :
  • 240730Z VRB03KT 9999 SCT010 13/09 Q1005
  • 240700Z 31003KT 280V340 9999 BKN009 OVC020 12/10 Q1005
  • 240630Z 28004KT 9999 BKN006 OVC020 11/10 Q1005
  • 240600Z VRB01KT 9999 BKN005 OVC020 11/09 Q1005
  • 240530Z 00000KT 9999 BKN005 OVC020 11/09 Q1005
  • 240500Z 11003KT 9999 SCT005 BKN020 10/09 Q1005
  • 240430Z 08002KT 9999 OVC005 10/09 Q1005
  • 240400Z 07004KT 040V110 9999 BKN005 OVC015 10/09 Q1005
  • 240330Z 11006KT 9999 OVC005 10/09 Q1004

TAF TAF LRCV
Valido dal 24 a 06 ore il 24 a 15 ore UTC


240500Z 2406/2415 VRB04KT 9999 BKN005 BKN020
BECMG 2406/2409 27010KT SCT020



MetMap, La meteo Aeronautica in un colpo d'occhio ! - Copyright ORBIFLY Dicembre 2007 - Disclaimer

ORBIFLY MET'MAP TEAM :

Programmazione e sviluppo : Alexandra Zaïnal
Concezione : Baudouin d'Aumeries
Supporto tecnico e logistico : Manuel Goepfert
Aiuto : Marc-Olivier Méhu
Aiuto per la traduzione : Arnaldo La Scala




FONTI E CREDITI :

   NOAA